Flight Track Log - Related Links

Times and Time Zones

All times are in EDT time to prevent confusion due to time zone crossing. See the NASA909 flight status page for this flight to view local times or setup timezone preferences in your user account.

Time Position Orientation Groundspeed Altitude Reporting Facility
EDT Latitude Longitude Course Direction KTS MPH feet Rate Location/Type
Wed 04:13:12 PM 30.0664 -92.2000 276° West 417 480 10,000  Level Houston Center
Wed 04:14:14 PM 30.0814 -92.3458 277° West 470 541 10,000  Level Houston Center
Wed 04:15:16 PM 30.1103 -92.5175 281° West 460 529 10,000 -1,210 Level Houston Center
Wed 04:16:00 PM 29.9732 -92.4193 262° West  Level Estimated
Wed 04:16:18 PM 30.1386 -92.6539 284° West 443 510 7,500  Level Houston Center
Wed 04:17:00 PM 29.9600 -92.5262 262° West  Level Estimated
Wed 04:17:20 PM 30.1597 -92.7756 281° West 393 452 5,800  Level Houston Center
Wed 04:18:00 PM 29.9529 -92.5837 276° West  Level Estimated
Wed 04:18:22 PM 30.1717 -92.8669 279° West 304 350 4,100  Level Houston Center
Wed 04:19:25 PM 30.1822 -92.9547 278° West 285 328 3,000 -576 Descending Houston Center
Wed 04:20:27 PM 30.1933 -93.0378 279° West 273 314 2,900 -194 Descending Houston Center
Wed 04:21:29 PM 30.2458 -93.1119 309° West 267 307 2,600 -677 Descending Houston Center
Wed 04:22:31 PM 30.2708 -93.1708 296° West 286 329 1,500 -484 Descending Houston Center
Wed 04:23:33 PM 30.2214 -93.1267 142° Southeast 293 337 1,600 -242 Climbing Houston Center
Wed 04:24:35 PM 30.2644 -93.1478 337° Northwest 232 267 1,000 -629 Descending Houston Center
Wed 04:25:37 PM 30.2175 -93.1411 173° South 213 245 300 145 Descending Houston Center
Wed 04:26:39 PM 30.2106 -93.1058 103° East 339 390 1,300 576 Climbing Houston Center
Wed 04:27:42 PM 30.2681 -93.1419 332° Northwest 237 273 1,500 -480 Climbing Houston Center
Wed 04:28:44 PM 30.2361 -93.1569 202° Southwest 222 255 300  Descending Houston Center
Wed 04:29:46 PM 30.1967 -93.1106 135° Southeast 238 274 1,500 581 Climbing Houston Center
Wed 04:30:48 PM 30.2564 -93.1283 346° North 244 281 1,500 -581 Level Houston Center
Wed 04:31:50 PM 30.2381 -93.1583 235° Southwest 219 252 300 -242 Descending Houston Center
Wed 04:32:52 PM 30.2008 -93.1164 136° Southeast 215 247 1,000 484 Climbing Houston Center
Wed 04:33:54 PM 30.2614 -93.1344 346° North 227 261 1,300 -339 Climbing Houston Center
Wed 04:34:56 PM 30.2256 -93.1492 200° South 215 247 300 -44 Descending Houston Center
Wed 04:36:11 PM 30.1592 -93.1150 156° South 315 362 1,200 3,066 Climbing Houston Center
Wed 04:37:13 PM 30.0567 -93.1025 174° South 399 459 7,300 4,210 Climbing Houston Center
Wed 04:38:15 PM 30.0000 -93.2231 242° Southwest 444 511 9,900 1,660 Climbing Houston Center
Wed 04:38:47 PM 29.9547 -93.3072 238° Southwest 452 520 9,900 -97 Level Houston Center
Wed 04:39:17 PM 29.9339 -93.3711 249° West 432 497 9,800  Descending Houston Center
Wed 04:40:20 PM 29.8908 -93.4933 248° West 413 475 9,900 97 Climbing Houston Center
Wed 04:41:21 PM 29.8447 -93.6172 247° West 393 452 10,000  Climbing Houston Center
Wed 04:42:24 PM 29.8047 -93.7275 247° West 397 457 9,900 -49 Descending Houston Center
Wed 04:43:23 PM 29.8094 -93.8656 272° West 396 456 9,900  Level Houston Center
Wed 04:44:20 PM 29.8083 -93.9767 269° West 395 455 9,900 51 Level Houston Center
Wed 04:45:21 PM 29.8053 -94.1119 269° West 398 458 10,000 -1,688 Climbing Houston Center
Wed 04:46:28 PM 29.8044 -94.2519 270° West 359 413 6,300 -1,860 Descending Houston Center
Wed 04:47:30 PM 29.8036 -94.3486 269° West 268 308 6,000 -146 Descending Houston Center
Wed 04:48:31 PM 29.8019 -94.4378 269° West 278 320 6,000 -326 Level Houston Center
Wed 04:49:39 PM 29.8000 -94.5400 269° West 290 334 5,300 -692 Descending Houston Center
Wed 04:50:41 PM 29.7997 -94.6383 270° West 306 352 4,500 -677 Descending Houston Center
Wed 04:51:43 PM 29.7986 -94.7306 269° West 292 336 3,900 -436 Descending Houston Center
Wed 04:52:31 PM 29.7961 -94.8097 268° West 273 314 3,700 -764 Descending Houston Center
Wed 04:53:33 PM 29.7942 -94.8989 269° West 290 334 2,500 -829 Descending Houston Center
Wed 04:54:34 PM 29.7925 -94.9908 269° West 286 329 2,000 -395 Descending Houston Center
Wed 04:54:49 PM 29.7933 -95.0161 272° West 284 327 2,000  Level Houston Center
Wed 04:55:35 PM 29.7925 -95.0822 269° West 261 300 2,000  Level Houston Center
Wed 04:55:51 PM 29.7936 -95.0992 274° West 275 316 2,000  Level Houston Center
Wed 04:56:42 PM 29.7725 -95.1594 248° West 226 260 2,000 -54 Level Houston Center
Wed 04:57:43 PM 29.7122 -95.1667 186° South 213 245 1,900 -585 Descending Houston Center
Wed 04:58:45 PM 29.6597 -95.1658 179° South 171 197 800 3,547 Descending Houston Center
Wed 05:00:00 PM 29.6094 -95.1631 177° South 184 212 10,000 -122 Climbing Houston Center
Wed 05:00:23 PM 29.5817 -95.1633 180° South 249 287 600 -8,806 Descending Houston Center
Wed 05:01:02 PM 29.5314 -95.1533 170° South 199 229 900 1,065 Climbing Houston Center
Wed 05:01:25 PM 29.5608 -95.0964 59° Northeast 300 345 1,700 581 Climbing Houston Center
Wed 05:02:04 PM 29.5883 -95.0431 59° Northeast 269 310 1,500  Descending Houston Center
Wed 05:02:26 PM 29.6156 -95.0319 20° North 267 307 1,700 97 Climbing Houston Center
Wed 05:03:06 PM 29.6383 -95.0689 305° West 289 333 1,600 -90 Descending Houston Center
Wed 05:03:33 PM 29.6467 -95.1169 281° West 322 371 1,600  Level Houston Center
Wed 05:04:08 PM 29.6408 -95.1619 262° West 307 353 1,600  Level Houston Center
Wed 05:04:29 PM 29.6064 -95.1581 174° South 283 326 1,600  Level Houston Center
Wed 05:05:23 PM 29.6408 -95.1383 26° Northeast 205 236 1,600 -426 Level Houston Center
Wed 05:06:50 PM 29.5839 -95.1631 201° Southwest 229 264 600 -690 Descending Houston Center

Login

Don't have an account? Register now (free) for customized features, flight alerts, and more!